KRDR/RDR METAR and TAF weather

Enter ICAO airport designator
Station Type Date Time Source
KRDR METAR 2020/09/22 04:56 UTC NOAA

KRDR 220456Z AUTO 22005KT 10SM CLR 12/07 A3002 RMK AO2 SLP170 T01150074 $


Station Type Date Time Source
KRDR Decoded METAR 2020/09/22 04:56 UTC NOAA

Grand Forks Air Force Base, ND, United States (KRDR) 47-58N 097-24W 278M
Sep 22, 2020 - 12:56 AM EDT / 2020.09.22 0456 UTC
Wind: from the SW (220 degrees) at 6 MPH (5 KT):0
Visibility: 10 mile(s):0
Sky conditions: clear
Temperature: 52.7 F (11.5 C)
Dew Point: 45.3 F (7.4 C)
Relative Humidity: 75%
Pressure (altimeter): 30.02 in. Hg (1016 hPa)
ob: KRDR 220456Z AUTO 22005KT 10SM CLR 12/07 A3002 RMK AO2 SLP170 T01150074
cycle: 5

Station Type Date Time Source
KRDR TAF 2020/09/22 02:13 UTC NOAA

TAF KRDR 220200Z 2202/2308 26007KT 9999 SKC QNH2994INS
BECMG 2217/2218 20010G20KT 9999 SKC QNH2990INS
BECMG 2304/2305 19007KT 9999 SKC QNH2989INS TX27/2222Z TN10/2211Z

Example: see airport list